KBKX

Brookings Regional Airport

Brookings, South Dakota, USA
METAR KBKX 201556Z AUTO 35019G25KT 10SM SCT031 02/M06 A3034 RMK AO2 SLP302 T00221056 FZRANO
Observed Flight Rules
Oct-20 @ 15:56 UTC (an hour ago) Visual Flight Rules
Wind Visibility Clouds
350° at 19 knots
 Gusting to 25 knots
10 miles
  • Scattered at 3,100' AGL
Temperatures Readings
Current 2°C / 36°F
Dewpoint -6°C / 21°F
Humidity 56%
Altimeter 30.34" Hg
Pressure 1030.2 hPa
Elevation 502
METAR KBKX 201556Z AUTO 35019G25KT 10SM SCT031 02/M06 A3034 RMK AO2 SLP302 T00221056 FZRANO
Observed Flight Rules
Oct-20 @ 15:56 UTC
(an hour ago)
VFR
Wind Visibility
350° at 19 knots
 Gusting to 25 knots
10 miles
Clouds
  • Scattered at 3,100' AGL
Temperature Dewpoint
2°C / 36°F -6°C / 21°F
Humidity Altimeter Pressure
56% 30.34" Hg 1030.2 hPa